Sierra Nevada Aquatic Research Lab (SNARL) Reserve, California Weather observations

Data are for 10 minute period ending at time listed.
 Day   Time   Solar   Ave.   Ave.  Ave.  Vector  Max.   Baro.   Total    
  of    of     Rad.   Air    Rel.  Wind   Wind   Wind  Press.  Precip.   
Year   Day            Temp.  Hum.  Speed  Dir.   Gust                    
2018   (PST)  Kw/m2    F      %     mph   deg.    mph    mb.     in.     
-------------------------------------------------------------------------
 293    5:10   0.00   18.9    74    1.0   150     2.8   791.1    0.00 
 293    5:20   0.00   18.7    74    1.1   223     3.1   791.1    0.00 
 293    5:30   0.00   18.8    76    0.6   289     1.8   791.0    0.00 
 293    5:40   0.00   19.5    75    0.2   317     1.8   791.0    0.00 
 293    5:50   0.00   17.1    75    0.9   188     2.6   791.0    0.00 
 293    6:00   0.00   17.1    78    0.8   186     2.7   791.0    0.00 
 293    6:10   0.00   17.5    77    1.1   161     2.0   791.0    0.00 
 293    6:20   0.01   18.0    76    1.1   150     2.3   791.0    0.00 
 293    6:30   0.02   18.3    77    0.1   191     0.7   791.0    0.00 
 293    6:40   0.06   20.8    72    0.8   230     1.7   791.0    0.00 
 293    6:50   0.09   24.2    67    0.8   235     2.6   791.0    0.00 
 293    7:00   0.14   28.6    61    1.0   314     2.6   791.1    0.00 
 293    7:10   0.17   33.7    51    0.1   124     1.3   791.1    0.00 
 293    7:20   0.20   34.7    48    1.1   117     2.9   791.2    0.00 
 293    7:30   0.23   37.4    44    0.4   204     1.6   791.2    0.00 
 293    7:40   0.26   40.7    40    0.4    63     2.1   791.2    0.00 
 293    7:50   0.29   42.0    38    1.0    93     3.0   791.2    0.00 
 293    8:00   0.33   43.5    37    0.5    24     1.4   791.2    0.00 
 293    8:10   0.36   45.5    35    0.4     1     1.7   791.0    0.00 
 293    8:20   0.39   46.5    34    1.1     5     2.7   791.0    0.00 
 293    8:30   0.42   47.7    32    0.8    92     2.9   790.9    0.00 
 293    8:40   0.45   50.6    29    0.8    98     2.7   790.9    0.00 
 293    8:50   0.47   51.6    27    1.0   357     3.0   790.8    0.00 
 293    9:00   0.50   52.4    27    3.1    53     7.3   790.7    0.00 
 293    9:10   0.53   51.6    28    3.4    79     6.7   790.7    0.00 
 293    9:20   0.55   52.1    29    3.8    67     6.7   790.6    0.00 
 293    9:30   0.57   52.2    29    3.0    85     6.5   790.5    0.00 
 293    9:40   0.59   53.2    27    2.6    43     6.6   790.3    0.00 
 293    9:50   0.61   54.0    26    2.3    55     5.7   790.3    0.00 
 293   10:00   0.63   54.2    25    2.2    58     4.4   790.3    0.00 
 293   10:10   0.65   55.3    24    2.7    12     6.5   790.2    0.00 
 293   10:20   0.66   56.1    24    4.1    44     9.0   790.1    0.00 
 293   10:30   0.68   56.3    25    4.2    62    10.5   790.0    0.00 
 293   10:40   0.69   56.3    25    5.1    69    10.4   790.0    0.00 
 293   10:50   0.69   56.6    25    5.2    78     9.8   789.9    0.00 
 293   11:00   0.70   57.1    25    4.1    68    10.4   789.8    0.00 
 293   11:10   0.71   57.2    25    3.4    80     7.8   789.6    0.00 
 293   11:20   0.71   58.9    23    6.7    94    15.1   789.5    0.00 
 293   11:30   0.72   58.8    22   11.9    94    19.1   789.3    0.00 
 293   11:40   0.72   58.3    21   13.7    94    19.2   789.2    0.00 
 293   11:50   0.72   59.1    20   12.6    87    18.1   789.1    0.00 
 293   12:00   0.72   59.8    19   10.8    84    20.1   788.9    0.00 
 293   12:10   0.71   59.5    19   13.3    89    19.7   788.8    0.00 
 293   12:20   0.71   59.6    19   11.7    82    19.9   788.7    0.00 
 293   12:30   0.70   59.9    18   10.8    88    19.4   788.6    0.00 
 293   12:40   0.69   60.1    17    9.2    82    16.7   788.5    0.00 
 293   12:50   0.68   60.6    17    9.8    84    16.0   788.4    0.00 
 293   13:00   0.67   59.6    18   10.9    84    16.7   788.3    0.00 
 293   13:10   0.65   60.5    17    9.7    88    18.0   788.2    0.00 
 293   13:20   0.64   59.6    18   12.6   104    17.4   788.1    0.00 
 293   13:30   0.62   60.0    17   10.2   108    15.6   788.1    0.00 
 293   13:40   0.60   60.0    17    8.5   102    16.3   788.0    0.00 
 293   13:50   0.57   60.5    18   10.0    99    15.4   787.9    0.00 
 293   14:00   0.55   61.5    17    8.1   103    12.6   787.9    0.00 
 293   14:10   0.53   61.0    17    8.2   109    14.1   787.8    0.00 
 293   14:20   0.51   60.6    17    9.6    98    16.7   787.7    0.00 
 293   14:30   0.48   60.2    17    9.2   108    15.5   787.6    0.00 
 293   14:40   0.45   59.9    17   10.3   106    14.8   787.6    0.00 
 293   14:50   0.42   59.4    18    9.7   109    15.6   787.6    0.00 
 293   15:00   0.40   59.4    18   10.1   106    15.6   787.5    0.00 
 293   15:10   0.36   59.1    18   10.8    98    15.1   787.5    0.00 
 293   15:20   0.33   59.0    18    9.5   112    12.9   787.5    0.00 
 293   15:30   0.30   58.9    18    9.4   106    14.3   787.4    0.00 
 293   15:40   0.27   58.6    18    8.6   108    12.5   787.3    0.00 
 293   15:50   0.24   58.4    17    8.4   116    12.4   787.3    0.00 
 293   16:00   0.21   58.0    17    7.6   112    11.6   787.3    0.00 
 293   16:10   0.17   57.5    17    6.1   117     9.0   787.3    0.00 
 293   16:20   0.02   55.3    18    5.5   123     8.3   787.2    0.00 
 293   16:30   0.01   52.6    20    4.2   124     7.0   787.2    0.00 
 293   16:40   0.01   49.7    22    2.0   162     4.2   787.2    0.00 
 293   16:50   0.01   45.9    25    1.7   232     4.2   787.1    0.00 
 293   17:00   0.01   43.6    27    4.0   224     6.4   787.1    0.00 
 293   17:10   0.01   42.5    29    5.3   245     7.2   787.1    0.00 
 293   17:20   0.00   42.5    31    5.4   244     6.6   787.1    0.00 
 293   17:30   0.00   40.9    33    4.8   242     7.2   787.2    0.00 
 293   17:40   0.00   40.8    33    3.8   236     5.8   787.3    0.00 
 293   17:50   0.00   40.6    33    4.1   244     6.1   787.4    0.00 
 293   18:00   0.00   38.9    34    3.9   234     6.3   787.4    0.00 
 293   18:10   0.00   38.2    35    2.6   240     4.3   787.5    0.00 
 293   18:20   0.00   37.9    35    4.1   248     5.4   787.6    0.00 
 293   18:30   0.00   37.1    37    2.4   302     4.9   787.7    0.00 
 293   18:40   0.00   35.0    40    0.9   264     2.3   787.8    0.00 
 293   18:50   0.00   34.0    40    2.4   241     4.5   787.7    0.00 
 293   19:00   0.00   34.0    41    3.3   275     5.0   787.8    0.00 
 293   19:10   0.00   33.1    44    2.3   272     4.7   787.8    0.00 
 293   19:20   0.00   32.5    44    1.3   250     3.7   787.9    0.00 
 293   19:30   0.00   32.0    42    3.5   230     6.1   787.9    0.00 
 293   19:40   0.00   33.1    40    3.6   229     5.8   788.0    0.00 
 293   19:50   0.00   34.0    41    4.0   256     5.9   788.0    0.00 
 293   20:00   0.00   35.1    40    3.8   289     6.8   788.1    0.00 
 293   20:10   0.00   33.6    41    2.4   290     4.5   788.1    0.00 
 293   20:20   0.00   31.3    44    2.8   270     5.6   788.1    0.00 
 293   20:30   0.00   31.8    44    1.1   252     4.2   788.2    0.00 
 293   20:40   0.00   30.2    47    0.7   283     1.8   788.2    0.00 
 293   20:50   0.00   28.9    50    1.9   268     2.7   788.2    0.00 
 293   21:00   0.00   28.3    48    2.2   248     3.5   788.3    0.00 
 293   21:10   0.00   29.2    50    2.8   318     5.8   788.3    0.00 
 293   21:20   0.00   27.4    50    0.4   174     1.6   788.4    0.00 
 293   21:30   0.00   27.7    55    0.7   303     1.9   788.4    0.00 
 293   21:40   0.00   27.0    56    1.8   290     3.9   788.4    0.00 
 293   21:50   0.00   26.0    54    0.4   220     2.5   788.5    0.00 
 293   22:00   0.00   26.8    54    0.5   259     1.9   788.4    0.00 
 293   22:10   0.00   25.9    57    1.7   297     4.1   788.4    0.00 
 293   22:20   0.00   25.1    57    1.7   249     3.2   788.4    0.00 
 293   22:30   0.00   24.5    59    1.4   326     3.3   788.4    0.00 
 293   22:40   0.00   24.2    58    0.5   288     2.5   788.4    0.00 
 293   22:50   0.00   24.7    59    0.8   274     2.0   788.4    0.00 
 293   23:00   0.00   24.7    58    0.7   296     2.8   788.4    0.00 
 293   23:10   0.00   24.8    56    1.9   293     4.0   788.4    0.00 
 293   23:20   0.00   25.2    56    1.1   266     3.9   788.3    0.00 
 293   23:30   0.00   24.2    57    0.9   250     3.4   788.3    0.00 
 293   23:40   0.00   24.7    59    1.2    43     3.8   788.2    0.00 
 293   23:50   0.00   23.0    60    0.6   139     2.4   788.2    0.00 
 294    0:00   0.00   22.4    60    1.9   229     2.5   788.1    0.00 
 294    0:10   0.00   23.0    60    1.7   263     3.0   788.1    0.00 
 294    0:20   0.00   22.9    64    1.1   320     3.7   788.1    0.00 
 294    0:30   0.00   22.9    61    2.8   299     4.6   788.1    0.00 
 294    0:40   0.00   24.0    60    2.7   292     4.8   788.0    0.00 
 294    0:50   0.00   23.3    60    1.5   313     4.5   788.0    0.00 
 294    1:00   0.00   21.5    63    0.3    67     2.2   788.0    0.00 
 294    1:10   0.00   20.8    66    0.8   259     1.9   788.0    0.00 
 294    1:20   0.00   21.5    65    1.2   227     2.6   788.0    0.00 
 294    1:30   0.00   21.0    65    1.0   221     2.4   787.9    0.00 
 294    1:40   0.00   21.1    68    0.7   199     2.0   787.9    0.00 
 294    1:50   0.00   21.7    67    1.5   264     3.0   787.9    0.00 
 294    2:00   0.00   22.0    68    1.4   304     2.9   787.9    0.00 
 294    2:10   0.00   20.5    69    0.9   320     2.3   787.9    0.00 
 294    2:20   0.00   20.7    72    1.1   306     3.3   787.8    0.00 
 294    2:30   0.00   20.7    68    1.1    25     3.5   787.7    0.00 
 294    2:40   0.00   21.3    68    1.5   146     2.8   787.8    0.00 
 294    2:50   0.00   20.7    70    0.8   201     3.0   787.7    0.00 
 294    3:00   0.00   21.1    69    2.1   241     5.1   787.6    0.00 
 294    3:10   0.00   20.5    68    4.0   242     5.7   787.5    0.00 
 294    3:20   0.00   21.2    68    1.9   284     5.6   787.5    0.00 
 294    3:30   0.00   21.7    70    2.0   304     4.2   787.4    0.00 
 294    3:40   0.00   22.3    68    1.8   325     3.6   787.5    0.00 
 294    3:50   0.00   21.9    66    1.4   273     2.9   787.4    0.00 
 294    4:00   0.00   20.6    71    2.4   256     3.3   787.4    0.00 
 294    4:10   0.00   19.1    72    0.6   207     2.6   787.4    0.00 
 294    4:20   0.00   19.9    72    0.6    71     2.7   787.4    0.00 
 294    4:30   0.00   18.1    73    2.8   205     4.0   787.4    0.00 
 294    4:40   0.00   19.3    73    2.9   219     4.5   787.4    0.00 
 294    4:50   0.00   20.7    72    3.3   299     5.7   787.3    0.00 
 294    5:00   0.00   20.2    72    1.0   205     3.4   787.3    0.00 

Return to SNARL Reserve graphs page.


Western Regional Climate Center,wrcc@dri.edu